Irvine, Florida
Current Conditions -  °F | °C
As of 3:15 AM on Saturday 25 Oct 2014 (Local Time) from KOCF Reporting Station
Clear Clear  
Wind Chill: 52°   Ceiling: Unl
Heat Index: 52°   Visibility: 5mi
Dew Point: 48°   Wind: 5mph
Humidity: 88%   Direction: 350°N
Pressure: 29.99"   Gusts: NA
Location:  29.3919°N, 82.2811°W
Report Text: KOCF 250715Z AUTO 35004KT 5SM CLR 11/09 A2999 RMK AO1 P0001
Loading
Personal Weather Stations






























Interactive Weather Map New forecast layout! Learn more

10-Day Weather Forecast

Advertisements
Track Severe Weather on mobile